createdAt,value
2019-03-10T00:01:02.664Z,2.65
2019-03-10T00:03:34.417Z,3.05
2019-03-10T00:06:05.698Z,2.75
2019-03-10T00:08:37.066Z,2.62
2019-03-10T00:11:08.357Z,2.90
2019-03-10T00:13:39.659Z,3.08
2019-03-10T00:16:11.414Z,2.75
2019-03-10T00:18:42.713Z,3.30
2019-03-10T00:21:14.047Z,2.42
2019-03-10T00:23:45.342Z,2.80
2019-03-10T00:26:16.627Z,2.70
2019-03-10T00:28:47.941Z,2.75
2019-03-10T00:31:19.245Z,2.75
2019-03-10T00:33:51.523Z,2.98
2019-03-10T00:36:23.274Z,3.00
2019-03-10T00:39:44.781Z,2.42
2019-03-10T00:42:55.139Z,2.67
2019-03-10T00:45:58.309Z,2.90
2019-03-10T00:49:07.003Z,2.50
2019-03-10T00:52:31.618Z,2.65
2019-03-10T00:55:02.873Z,2.40
2019-03-10T00:57:34.174Z,2.80
2019-03-10T01:00:06.994Z,2.47
2019-03-10T01:02:38.365Z,3.02
2019-03-10T01:05:09.746Z,2.60
2019-03-10T01:07:41.030Z,2.85
2019-03-10T01:10:12.395Z,2.65
2019-03-10T01:12:43.661Z,2.30
2019-03-10T01:15:15.150Z,2.80
2019-03-10T01:17:47.232Z,2.75
2019-03-10T01:20:18.595Z,2.75
2019-03-10T01:22:49.869Z,2.75
2019-03-10T01:25:21.150Z,3.05
2019-03-10T01:27:53.483Z,2.35
2019-03-10T01:30:25.313Z,2.27
2019-03-10T01:33:35.867Z,2.12
2019-03-10T01:36:14.425Z,2.65
2019-03-10T01:38:45.708Z,2.27
2019-03-10T01:41:18.551Z,2.55
2019-03-10T01:43:49.854Z,3.00
2019-03-10T01:46:21.624Z,3.12
2019-03-10T01:48:52.905Z,2.60
2019-03-10T01:51:24.209Z,2.20
2019-03-10T01:53:55.478Z,3.17
2019-03-10T01:56:26.790Z,2.72
2019-03-10T01:58:58.067Z,2.70
2019-03-10T02:01:29.439Z,2.72
2019-03-10T02:04:00.714Z,2.85
2019-03-10T02:06:32.008Z,2.95
2019-03-10T02:09:04.499Z,3.05
2019-03-10T02:11:36.698Z,2.33
2019-03-10T02:14:07.976Z,2.70
2019-03-10T02:16:39.306Z,2.95
2019-03-10T02:19:11.070Z,2.50
2019-03-10T02:21:42.854Z,2.72
2019-03-10T02:24:23.404Z,2.85
2019-03-10T02:26:47.178Z,2.50
2019-03-10T02:29:18.533Z,2.90
2019-03-10T02:31:49.840Z,2.72
2019-03-10T02:34:21.163Z,2.70
2019-03-10T02:36:52.483Z,2.62
2019-03-10T02:39:24.692Z,2.70
2019-03-10T02:41:56.056Z,2.70
2019-03-10T02:44:27.354Z,2.40
2019-03-10T02:46:58.682Z,2.35
2019-03-10T02:49:29.960Z,2.10
2019-03-10T02:52:01.327Z,2.30
2019-03-10T02:54:32.606Z,2.30
2019-03-10T02:57:03.905Z,2.40
2019-03-10T02:59:35.177Z,2.83
2019-03-10T03:02:07.091Z,2.17
2019-03-10T03:04:39.814Z,2.30
2019-03-10T03:07:11.205Z,2.67
2019-03-10T03:09:42.546Z,2.10
2019-03-10T03:12:13.842Z,2.08
2019-03-10T03:14:45.203Z,1.92
2019-03-10T03:17:16.504Z,2.27
2019-03-10T03:19:47.778Z,1.95
2019-03-10T03:22:19.080Z,2.20
2019-03-10T03:24:50.423Z,2.47
2019-03-10T03:27:21.770Z,2.30
2019-03-10T03:29:53.691Z,2.50
2019-03-10T03:32:25.059Z,2.35
2019-03-10T03:34:56.338Z,2.35
2019-03-10T03:37:27.696Z,2.20
2019-03-10T03:39:59.759Z,2.40
2019-03-10T03:42:31.039Z,2.20
2019-03-10T03:45:02.371Z,2.30
2019-03-10T03:47:33.733Z,2.62
2019-03-10T03:50:05.436Z,2.33
2019-03-10T03:52:36.861Z,2.42
2019-03-10T03:55:08.479Z,2.20
2019-03-10T03:57:40.070Z,2.25
2019-03-10T04:00:11.884Z,2.37
2019-03-10T04:02:43.543Z,2.35
2019-03-10T04:05:14.808Z,2.27
2019-03-10T04:07:47.151Z,2.25
2019-03-10T04:10:18.412Z,2.25
2019-03-10T04:12:49.769Z,2.60
2019-03-10T04:15:21.072Z,2.22
2019-03-10T04:17:52.416Z,2.65
2019-03-10T04:20:23.689Z,2.10
2019-03-10T04:22:55.484Z,2.30
2019-03-10T04:25:26.779Z,2.47
2019-03-10T04:27:58.061Z,2.10
2019-03-10T04:30:29.326Z,1.95
2019-03-10T04:33:00.623Z,2.40
2019-03-10T04:35:31.926Z,2.25
2019-03-10T04:38:03.278Z,2.05
2019-03-10T04:40:35.007Z,2.20
2019-03-10T04:43:06.344Z,2.00
2019-03-10T04:45:37.614Z,2.17
2019-03-10T04:48:08.946Z,2.35
2019-03-10T04:50:40.678Z,1.92
2019-03-10T04:53:12.041Z,1.87
2019-03-10T04:56:12.781Z,1.70
2019-03-10T04:58:49.758Z,1.65
2019-03-10T05:01:21.758Z,1.92
2019-03-10T05:03:53.511Z,1.60
2019-03-10T05:06:24.793Z,1.57
2019-03-10T05:08:56.069Z,1.70
2019-03-10T05:11:27.329Z,1.50
2019-03-10T05:13:58.673Z,1.37
2019-03-10T05:16:30.314Z,1.70
2019-03-10T05:19:02.058Z,1.45
2019-03-10T05:21:33.350Z,1.40
2019-03-10T05:24:11.985Z,1.25
2019-03-10T05:26:43.264Z,1.40
2019-03-10T05:29:14.539Z,1.45
2019-03-10T05:31:46.166Z,1.22
2019-03-10T05:34:17.461Z,1.15
2019-03-10T05:36:49.807Z,1.00
2019-03-10T05:39:21.122Z,1.10
2019-03-10T05:41:52.405Z,1.02
2019-03-10T05:44:25.138Z,1.00
2019-03-10T05:46:56.487Z,0.80
2019-03-10T05:49:27.733Z,0.85
2019-03-10T05:51:59.006Z,0.98
2019-03-10T05:54:30.750Z,0.85
2019-03-10T05:57:02.301Z,0.60
2019-03-10T05:59:33.574Z,0.70
2019-03-10T06:02:04.939Z,0.50
2019-03-10T06:04:36.221Z,0.60
2019-03-10T06:07:07.489Z,0.60
2019-03-10T06:09:38.750Z,0.40
2019-03-10T06:12:10.034Z,0.70
2019-03-10T06:14:41.342Z,0.70
2019-03-10T06:17:12.639Z,0.50
2019-03-10T06:19:43.918Z,0.42
2019-03-10T06:22:15.275Z,0.50
2019-03-10T06:24:46.546Z,0.40
2019-03-10T06:27:17.902Z,0.60
2019-03-10T06:29:49.194Z,0.45
2019-03-10T06:32:20.485Z,0.75
2019-03-10T06:34:51.761Z,0.47
2019-03-10T06:37:23.143Z,0.40
2019-03-10T06:39:54.424Z,0.50
2019-03-10T06:42:25.849Z,0.37
2019-03-10T06:44:57.122Z,0.42
2019-03-10T06:47:28.456Z,0.30
2019-03-10T06:49:59.809Z,0.50
2019-03-10T06:52:31.078Z,0.35
2019-03-10T06:55:02.355Z,0.20
2019-03-10T06:57:33.646Z,0.30
2019-03-10T07:00:05.068Z,0.30
2019-03-10T07:02:36.362Z,0.33
2019-03-10T07:05:09.210Z,0.45
2019-03-10T07:07:40.833Z,0.30
2019-03-10T07:10:13.267Z,0.45
2019-03-10T07:12:44.647Z,0.20
2019-03-10T07:15:15.915Z,0.35
2019-03-10T07:17:47.216Z,0.50
2019-03-10T07:20:18.489Z,0.20
2019-03-10T07:22:49.809Z,0.20
2019-03-10T07:25:21.602Z,0.30
2019-03-10T07:28:01.671Z,0.40
2019-03-10T07:30:41.105Z,0.50
2019-03-10T07:33:21.113Z,0.40
2019-03-10T07:35:58.277Z,0.50
2019-03-10T07:38:48.733Z,0.57
2019-03-10T07:41:36.228Z,0.53
2019-03-10T07:44:19.145Z,0.40
2019-03-10T07:47:18.653Z,0.40
2019-03-10T07:50:01.798Z,0.50
2019-03-10T07:52:49.503Z,0.55
2019-03-10T07:55:37.741Z,0.60
2019-03-10T07:58:26.101Z,0.60
2019-03-10T08:01:11.884Z,0.62
2019-03-10T08:04:01.345Z,0.60
2019-03-10T08:06:49.681Z,0.42
2019-03-10T08:09:55.398Z,0.50
2019-03-10T08:12:54.622Z,0.40
2019-03-10T08:15:43.562Z,0.40
2019-03-10T08:18:36.943Z,0.40
2019-03-10T08:21:15.911Z,0.35
2019-03-10T08:24:05.148Z,0.70
2019-03-10T08:26:58.535Z,0.42
2019-03-10T08:29:48.318Z,0.37
2019-03-10T08:32:38.205Z,0.40
2019-03-10T08:35:15.177Z,0.40
2019-03-10T08:38:04.148Z,0.30
2019-03-10T08:40:41.237Z,0.37
2019-03-10T08:43:21.069Z,0.47
2019-03-10T08:46:11.403Z,0.40
2019-03-10T08:48:51.419Z,0.40
2019-03-10T08:51:37.945Z,0.47
2019-03-10T08:54:31.291Z,0.28
2019-03-10T08:57:14.109Z,0.30
2019-03-10T08:59:56.936Z,0.40
2019-03-10T09:02:38.074Z,0.20
2019-03-10T09:05:23.467Z,0.20
2019-03-10T09:08:03.808Z,0.35
2019-03-10T09:10:46.129Z,0.30
2019-03-10T09:13:38.014Z,0.30
2019-03-10T09:16:27.300Z,0.30
2019-03-10T09:19:16.516Z,0.28
2019-03-10T09:22:03.528Z,0.30
2019-03-10T09:24:48.473Z,0.25
2019-03-10T09:30:46.785Z,0.30
2019-03-10T09:33:39.650Z,0.30
2019-03-10T09:36:30.466Z,0.25
2019-03-10T09:39:55.542Z,0.40
2019-03-10T09:42:45.028Z,0.40
2019-03-10T09:45:48.286Z,0.50
2019-03-10T09:48:32.262Z,0.40
2019-03-10T09:51:17.338Z,0.40
2019-03-10T09:54:07.107Z,0.40
2019-03-10T09:57:09.901Z,0.50
2019-03-10T10:00:00.261Z,0.47
2019-03-10T10:02:50.029Z,0.40
2019-03-10T10:05:35.342Z,0.40
2019-03-10T10:08:17.375Z,0.40
2019-03-10T10:11:07.763Z,0.30
2019-03-10T10:13:50.242Z,0.30
2019-03-10T10:16:50.256Z,0.20
2019-03-10T10:19:52.687Z,0.20
2019-03-10T10:22:46.712Z,0.10
2019-03-10T10:25:26.875Z,0.10
2019-03-10T10:28:04.697Z,0.20
2019-03-10T10:30:53.660Z,0.10
2019-03-10T10:33:55.246Z,0.10
2019-03-10T10:36:55.821Z,0.10
2019-03-10T10:39:38.304Z,0.20
2019-03-10T10:42:23.102Z,0.10
2019-03-10T10:45:04.053Z,0.20
2019-03-10T10:48:00.758Z,0.30
2019-03-10T10:50:41.986Z,0.10
2019-03-10T10:53:31.249Z,0.28
2019-03-10T10:56:28.105Z,0.13
2019-03-10T10:59:18.719Z,0.20
2019-03-10T11:02:14.648Z,0.42
2019-03-10T11:05:11.096Z,0.37
2019-03-10T11:07:54.425Z,0.53
2019-03-10T11:10:54.018Z,0.50
2019-03-10T11:13:48.413Z,0.40
2019-03-10T11:16:25.494Z,0.42
2019-03-10T11:19:10.458Z,0.50
2019-03-10T11:21:51.923Z,0.42
2019-03-10T11:24:45.335Z,0.30
2019-03-10T11:27:42.618Z,0.20
2019-03-10T11:30:36.131Z,0.40
2019-03-10T11:33:24.483Z,0.30
2019-03-10T11:36:13.906Z,0.20
2019-03-10T11:38:57.795Z,0.30
2019-03-10T11:41:51.106Z,0.50
2019-03-10T11:44:48.525Z,1.00
2019-03-10T11:47:36.335Z,1.30
2019-03-10T11:50:19.165Z,0.50
2019-03-10T11:53:19.267Z,0.40
2019-03-10T11:55:59.230Z,0.50
2019-03-10T11:58:56.137Z,0.45
2019-03-10T12:01:51.109Z,0.50
2019-03-10T12:04:43.534Z,0.40
2019-03-10T12:07:29.295Z,0.40
2019-03-10T12:10:00.599Z,0.50
2019-03-10T12:12:31.870Z,0.40
2019-03-10T12:15:03.214Z,0.57
2019-03-10T12:17:35.579Z,0.40
2019-03-10T12:20:07.998Z,0.40
2019-03-10T12:22:40.244Z,0.35
2019-03-10T12:25:11.625Z,0.40
2019-03-10T12:27:43.898Z,0.30
2019-03-10T12:30:15.661Z,0.40
2019-03-10T12:32:46.981Z,0.30
2019-03-10T12:35:18.266Z,0.47
2019-03-10T12:37:49.538Z,0.40
2019-03-10T12:40:21.121Z,0.50
2019-03-10T12:42:52.870Z,0.80
2019-03-10T12:45:24.229Z,0.53
2019-03-10T12:47:55.502Z,0.50
2019-03-10T12:50:26.795Z,0.60
2019-03-10T12:52:59.158Z,0.70
2019-03-10T12:55:30.465Z,0.65
2019-03-10T12:58:01.751Z,0.90
2019-03-10T13:00:34.571Z,0.68
2019-03-10T13:03:05.866Z,0.80
2019-03-10T13:05:37.160Z,0.80
2019-03-10T13:08:08.807Z,0.85
2019-03-10T13:10:40.792Z,0.60
2019-03-10T13:13:12.512Z,0.53
2019-03-10T13:15:43.830Z,0.90
2019-03-10T13:18:15.110Z,0.70
2019-03-10T13:20:46.395Z,0.78
2019-03-10T13:23:17.734Z,0.50
2019-03-10T13:25:49.025Z,1.00
2019-03-10T13:28:20.301Z,0.98
2019-03-10T13:30:52.079Z,1.30
2019-03-10T13:33:23.354Z,0.80
2019-03-10T13:35:56.953Z,1.05
2019-03-10T13:38:28.121Z,0.90
2019-03-10T13:40:59.427Z,0.95
2019-03-10T13:43:30.690Z,1.62
2019-03-10T13:46:02.452Z,1.32
2019-03-10T13:48:33.733Z,1.45
2019-03-10T13:51:05.039Z,1.30
2019-03-10T13:53:36.310Z,1.30
2019-03-10T13:56:07.613Z,1.70
2019-03-10T13:58:38.883Z,1.55
2019-03-10T14:01:11.271Z,1.62
2019-03-10T14:03:42.628Z,1.42
2019-03-10T14:06:13.943Z,1.45
2019-03-10T14:08:45.239Z,1.90
2019-03-10T14:11:16.543Z,1.20
2019-03-10T14:13:47.806Z,1.85
2019-03-10T14:16:19.127Z,1.72
2019-03-10T14:18:51.379Z,1.35
2019-03-10T14:21:22.918Z,1.52
2019-03-10T14:23:54.218Z,1.60
2019-03-10T14:26:25.518Z,1.50
2019-03-10T14:28:56.782Z,1.45
2019-03-10T14:31:28.062Z,1.60
2019-03-10T14:33:59.329Z,1.20
2019-03-10T14:36:30.693Z,1.50
2019-03-10T14:39:04.454Z,1.95
2019-03-10T14:41:37.013Z,1.55
2019-03-10T14:44:08.282Z,1.35
2019-03-10T14:46:39.574Z,1.45
2019-03-10T14:49:22.261Z,1.57
2019-03-10T14:51:44.198Z,1.67
2019-03-10T14:54:15.474Z,1.12
2019-03-10T14:56:46.770Z,1.30
2019-03-10T14:59:19.129Z,1.77
2019-03-10T15:01:50.569Z,1.12
2019-03-10T15:04:22.395Z,1.90
2019-03-10T15:06:53.698Z,1.32
2019-03-10T15:09:26.510Z,1.25
2019-03-10T15:11:57.794Z,1.40
2019-03-10T15:14:29.075Z,1.30
2019-03-10T15:17:02.082Z,1.30
2019-03-10T15:19:33.544Z,1.35
2019-03-10T15:22:04.838Z,1.22
2019-03-10T15:24:36.114Z,1.47
2019-03-10T15:27:07.478Z,1.30
2019-03-10T15:29:39.239Z,1.22
2019-03-10T15:32:10.534Z,1.47
2019-03-10T15:34:41.810Z,1.12
2019-03-10T16:20:18.564Z,1.45
2019-03-10T16:22:50.401Z,1.15
2019-03-10T16:25:22.135Z,1.05
2019-03-10T16:27:53.434Z,0.90
2019-03-10T16:30:24.786Z,1.10
2019-03-10T16:32:56.606Z,1.25
2019-03-10T16:35:28.017Z,0.95
2019-03-10T16:37:59.357Z,1.17
2019-03-10T16:40:30.694Z,1.10
2019-03-10T16:43:02.456Z,1.40
2019-03-10T16:45:33.731Z,0.90
2019-03-10T16:48:05.024Z,0.55
2019-03-10T16:50:36.297Z,0.70
2019-03-10T16:53:11.043Z,0.78
2019-03-10T16:55:42.946Z,1.70
2019-03-10T16:58:14.856Z,1.02
2019-03-10T17:00:46.493Z,0.80
2019-03-10T17:03:30.325Z,1.10
2019-03-10T17:06:03.061Z,0.82
2019-03-10T17:08:34.819Z,1.02
2019-03-10T17:11:06.467Z,0.80
2019-03-10T17:13:37.758Z,0.72
2019-03-10T17:16:09.074Z,0.60
2019-03-10T17:18:40.386Z,0.75
2019-03-10T17:21:12.075Z,0.90
2019-03-10T17:23:43.825Z,0.42
2019-03-10T17:26:15.442Z,0.53
2019-03-10T17:28:47.203Z,0.60
2019-03-10T17:31:18.475Z,0.78
2019-03-10T17:33:53.250Z,0.70
2019-03-10T17:36:25.746Z,0.55
2019-03-10T17:38:57.951Z,0.50
2019-03-10T17:41:29.986Z,0.45
2019-03-10T17:44:02.013Z,0.30
2019-03-10T17:46:33.582Z,0.50
2019-03-10T17:49:05.374Z,0.60
2019-03-10T17:51:36.759Z,0.50
2019-03-10T17:54:08.514Z,0.50
2019-03-10T17:56:39.798Z,0.70
2019-03-10T17:59:11.091Z,0.60
2019-03-10T18:01:42.436Z,0.50
2019-03-10T18:04:13.730Z,0.53
2019-03-10T18:06:45.006Z,0.50
2019-03-10T18:09:16.303Z,0.60
2019-03-10T18:11:47.979Z,0.82
2019-03-10T18:14:18.937Z,1.05
2019-03-10T18:16:50.250Z,0.65
2019-03-10T18:19:22.653Z,0.60
2019-03-10T18:21:54.418Z,0.35
2019-03-10T18:24:25.715Z,0.80
2019-03-10T18:26:56.995Z,0.62
2019-03-10T18:29:28.286Z,0.70
2019-03-10T18:32:01.948Z,1.05
2019-03-10T18:34:32.635Z,1.07
2019-03-10T18:37:04.403Z,0.90
2019-03-10T18:39:35.777Z,1.00
2019-03-10T18:42:07.054Z,0.90
2019-03-10T18:44:38.351Z,0.70
2019-03-10T18:47:10.095Z,0.62
2019-03-10T18:49:41.415Z,0.62
2019-03-10T18:52:12.693Z,0.80
2019-03-10T18:54:44.015Z,1.00
2019-03-10T18:57:15.286Z,1.00
2019-03-10T18:59:47.048Z,0.95
2019-03-10T19:02:18.785Z,0.60
2019-03-10T19:04:50.520Z,0.40
2019-03-10T19:07:21.813Z,0.85
2019-03-10T19:09:53.109Z,0.50
2019-03-10T19:12:24.406Z,0.70
2019-03-10T19:14:55.718Z,0.62
2019-03-10T19:17:27.005Z,0.85
2019-03-10T19:19:58.769Z,0.60
2019-03-10T19:22:30.060Z,0.88
2019-03-10T19:25:01.351Z,1.25
2019-03-10T19:27:32.626Z,0.80
2019-03-10T19:30:04.681Z,0.57
2019-03-10T19:32:36.442Z,0.70
2019-03-10T19:35:07.834Z,0.90
2019-03-10T19:37:39.372Z,0.72
2019-03-10T19:40:12.994Z,0.78
2019-03-10T19:42:44.370Z,0.80
2019-03-10T19:45:16.192Z,0.82
2019-03-10T19:47:47.585Z,0.57
2019-03-10T19:50:19.968Z,1.00
2019-03-10T19:52:51.270Z,0.80
2019-03-10T19:55:22.698Z,1.00
2019-03-10T19:57:53.988Z,1.20
2019-03-10T20:00:25.361Z,1.37
2019-03-10T20:02:56.734Z,0.90
2019-03-10T20:05:28.041Z,0.90
2019-03-10T20:07:59.401Z,0.60
2019-03-10T20:10:30.805Z,1.02
2019-03-10T20:13:02.446Z,1.47
2019-03-10T20:15:34.198Z,1.00
2019-03-10T20:18:05.569Z,1.00
2019-03-10T20:20:36.889Z,0.85
2019-03-10T20:23:08.473Z,0.90
2019-03-10T20:25:39.886Z,1.50
2019-03-10T20:28:12.613Z,0.90
2019-03-10T20:30:44.388Z,1.30
2019-03-10T20:33:15.746Z,0.90
2019-03-10T20:35:47.094Z,0.55
2019-03-10T20:38:18.346Z,1.00
2019-03-10T20:40:49.637Z,0.72
2019-03-10T20:43:21.011Z,0.45
2019-03-10T20:45:53.454Z,0.85
2019-03-10T20:48:24.746Z,0.40
2019-03-10T20:50:56.599Z,0.30
2019-03-10T20:53:30.734Z,0.40
2019-03-10T20:56:02.271Z,0.40
2019-03-10T20:58:35.044Z,0.45
2019-03-10T21:01:06.542Z,0.40
2019-03-10T21:03:37.930Z,0.50
2019-03-10T21:06:09.302Z,0.50
2019-03-10T21:08:40.573Z,0.55
2019-03-10T21:11:12.544Z,0.47
2019-03-10T21:13:44.431Z,0.60
2019-03-10T21:16:16.829Z,0.57
2019-03-10T21:18:48.638Z,0.70
2019-03-10T21:21:20.574Z,0.70
2019-03-10T21:23:55.306Z,0.70
2019-03-10T21:26:26.405Z,0.60
2019-03-10T21:29:16.958Z,0.60
2019-03-10T21:31:48.722Z,0.40
2019-03-10T21:34:20.078Z,0.47
2019-03-10T21:36:51.631Z,0.40
2019-03-10T21:39:34.229Z,0.37
2019-03-10T21:41:58.290Z,0.40
2019-03-10T21:44:29.575Z,0.50
2019-03-10T21:47:00.858Z,0.60
2019-03-10T21:49:32.118Z,0.47
2019-03-10T21:52:03.398Z,0.47
2019-03-10T21:54:34.713Z,0.60
2019-03-10T21:57:05.983Z,0.75
2019-03-10T21:59:37.245Z,0.78
2019-03-10T22:02:08.595Z,0.60
2019-03-10T22:04:39.850Z,0.50
2019-03-10T22:07:12.208Z,0.60
2019-03-10T22:09:43.528Z,0.60
2019-03-10T22:12:15.182Z,0.60
2019-03-10T22:14:46.437Z,0.70
2019-03-10T22:17:17.734Z,0.60
2019-03-10T22:19:48.994Z,0.80
2019-03-10T22:22:20.277Z,0.62
2019-03-10T22:24:51.605Z,0.70
2019-03-10T22:27:22.898Z,0.50
2019-03-10T22:29:54.230Z,0.70
2019-03-10T22:32:25.590Z,0.70
2019-03-10T22:34:56.890Z,0.85
2019-03-10T22:37:28.172Z,0.80
2019-03-10T22:39:59.433Z,0.90
2019-03-10T22:42:30.706Z,1.00
2019-03-10T22:45:02.231Z,0.98
2019-03-10T22:47:33.574Z,1.10
2019-03-10T22:50:05.018Z,1.10
2019-03-10T22:52:36.321Z,1.10
2019-03-10T22:55:07.908Z,0.98
2019-03-10T22:57:39.249Z,1.10
2019-03-10T23:00:15.496Z,1.15
2019-03-10T23:02:48.374Z,1.27
2019-03-10T23:05:19.717Z,1.27
2019-03-10T23:07:51.060Z,1.30
2019-03-10T23:10:22.832Z,0.95
2019-03-10T23:12:54.128Z,1.40
2019-03-10T23:15:25.393Z,1.45
2019-03-10T23:17:56.677Z,1.37
2019-03-10T23:20:27.937Z,1.10
2019-03-10T23:22:59.550Z,1.20
2019-03-10T23:25:30.805Z,1.40
2019-03-10T23:28:02.265Z,1.20
2019-03-10T23:30:34.721Z,1.25
2019-03-10T23:33:07.221Z,1.00
2019-03-10T23:35:38.565Z,1.10
2019-03-10T23:38:09.848Z,1.57
2019-03-10T23:40:41.129Z,1.22
2019-03-10T23:43:12.542Z,1.37
2019-03-10T23:45:43.797Z,1.22
2019-03-10T23:48:15.615Z,1.22
2019-03-10T23:50:47.209Z,1.57
2019-03-10T23:53:18.642Z,1.50
2019-03-10T23:55:49.904Z,1.45
2019-03-10T23:58:21.207Z,1.32
